Tiempo atmosférico en la estación meteorológica de Ávila, Ávila (1130 m.)



Fecha
DESCASC
Temp. máxima en grados centígrados (hora)
DESCASC
Temp. mínima en grados centígrados (hora)
DESCASC
Temp. media en grados centígrados
DESCASC
Racha de viento máxima en m/sg (hora)
DESCASC
Velocidad máxima media en intervalos de 10 minutos(hora)
DESCASC
Precipitaciones diarias en mm
DESCASC
Precipitaciones de 00:00 a 06:00 en mm
DESCASC
Precipitaciones de 06:00 a 12:00 en mm
DESCASC
Precipitaciones de 12:00 a 18:00 en mm
DESCASC
Precipitaciones de 18:00 a 24:00 en mm
DESCASC
17-10-2019 21.1 (16:00) 8.5 (01:40) 14.8 8.89 (14:00) 5.83 (12:10) 2.2 0 2 0 0.2
16-10-2019 18.1 (16:00) 4 (08:40) 11.1 6.67 (13:30) 3.61 (13:30) 0 0 0 0 0
15-10-2019 13.6 (16:20) 3.5 (06:20) 8.6 7.78 (00:10) 4.72 (17:20) 0 0 0 0 0
14-10-2019 17.3 (15:30) 5.9 (23:59) 11.6 18.61 (10:20) 7.22 (10:00) 6 0 0 5.4 0.6
13-10-2019 21.4 (15:50) 13.1 (00:00) 17.3 11.67 (14:50) 6.39 (17:50) 0 0 0 0 0
12-10-2019 24.3 (16:10) 16 (00:00) 20.1 12.78 (17:10) 6.67 (16:40) 0 0 0 0 0
11-10-2019 24.2 (16:20) 13.5 (00:00) 18.9 8.89 (15:10) 5.83 (11:10) 0 0 0 0 0
10-10-2019 24.3 (17:20) 7.5 (00:00) 15.9 8.33 (16:10) 4.72 (15:50) 0 0 0 0 0
09-10-2019 21.9 (16:40) 12.7 (00:00) 17.3 8.33 (16:40) 4.44 (10:30) 0 0 0 0 0
08-10-2019 28.5 (16:20) 10.3 (00:00) 19.4 7.22 (17:20) 4.17 (17:20) 0 0 0 0 0
07-10-2019 24.6 (17:30) 10.2 (00:00) 17.4 7.22 (03:50) 5.28 (03:50) 0 0 0 0 0
06-10-2019 23 (17:20) 6.6 (00:00) 14.8 7.78 (15:50) 4.72 (19:10) 0 0 0 0 0
05-10-2019 25.1 (16:30) 8.1 (00:00) 16.6 11.39 (17:20) 5.28 (17:20) 0 0 0 0 0
04-10-2019 22 (17:30) 8.2 (00:00) 15.1 9.17 (16:10) 5 (16:10) 0 0 0 0 0
03-10-2019 23.2 (17:10) 6.3 (00:00) 14.8 8.89 (17:50) 5.28 (17:50) 0 0 0 0 0
02-10-2019 17.8 (17:40) 8.3 (00:00) 13 10.83 (07:10) 7.22 (07:10) 0 0 0 0 0
01-10-2019 20.5 (15:10) 10.3 (00:00) 15.4 11.39 (14:40) 6.94 (15:10) 0 0 0 0 0
30-09-2019 28.2 (16:40) 9.1 (00:00) 18.7 8.61 (18:00) 4.17 (18:00) 0 0 0 0 0
29-09-2019 25.9 (17:10) 8.6 (00:00) 17.3 8.61 (15:00) 5 (13:30) 0 0 0 0 0
28-09-2019 26.6 (15:40) 8 (00:00) 17.3 6.67 (17:30) 3.61 (17:30) 0 0 0 0 0
27-09-2019 23.8 (16:30) 9.1 (00:00) 16.4 8.61 (16:50) 5.28 (16:30) 0 0 0 0 0
26-09-2019 25.8 (16:00) 8.9 (00:00) 17.3 8.61 (16:30) 5.28 (17:40) 0 0 0 0 0
25-09-2019 20 (17:30) 10.4 (00:00) 15.2 7.78 (02:10) 5 (02:00) 0 0 0 0 0
24-09-2019 23.7 (14:10) 9.9 (00:00) 16.8 8.61 (17:50) 6.11 (17:50) 0 0 0 0 0
23-09-2019 22.4 (17:40) 7.7 (00:00) 15 5.83 (17:00) 3.33 (16:30) 0 0 0 0 0
22-09-2019 18.1 (17:10) 10.1 (00:00) 14.1 10.28 (14:30) 6.11 (01:10) 1.4 0 1.4 0 0
21-09-2019 17 (16:20) 12.6 (00:00) 14.8 10.83 (21:20) 5.83 (16:20) 0.8 0 0.2 0.2 0.4
20-09-2019 22.4 (17:00) 14 (00:00) 18.2 11.39 (17:00) 5.56 (17:00) 5 0 0 0 5

Gráficas

Temp. máximas Temp. mínimas Temp. medias Precipitaciones Rachas de viento máximas Velocidades máximas media en intervalos de 10 minutos

Datos horarios

Fecha y hora oficial Temperatura (ºC) Velocidad del viento (km/h) Dirección del viento Racha (km/h) Dirección de racha Precipitación (mm) Presión (hPa) Tendencia (hPa) Humedad (%)
2019-10-19 23:00:00 11.2 8 Sudoeste 30 Sur 0.2 877.1 -1.1 84
2019-10-19 22:00:00 10.5 12 Sur 30 Sur 0.2 876.6 -2.4 91
2019-10-19 21:00:00 10.5 14 Sudeste 47 Sur 3 877.2 -0.7 88
2019-10-19 20:00:00 11.5 13 Sur 34 Sur 0.2 878.2 -1 79
2019-10-19 19:00:00 12 10 Sur 35 Sur 0 879 -1 78
2019-10-19 18:00:00 12.6 15 Sur 49 Sur 0 877.9 -2 75
2019-10-19 17:00:00 15.5 15 Sur 34 Sudoeste 0 879.2 -1.9 61
2019-10-19 16:00:00 17 17 Sur 37 Sur 0 880 -2.1 54
2019-10-19 15:00:00 16 22 Sur 41 Sudoeste 0 879.9 -2.6 52
2019-10-19 14:00:00 15.6 17 Sur 34 Sur 0 881.1 -1.5 53
2019-10-19 13:00:00 13.9 15 Sudeste 29 Sudeste 0 882.1 -0.8 57
2019-10-19 12:00:00 12 14 Sudeste 29 Sudeste 0 882.5 -0.2 64
2019-10-19 11:00:00 11 8 Sur 24 Sudeste 0 882.6 -0.5 71
2019-10-19 10:00:00 9.1 10 Sudeste 19 Sudeste 0 882.9 -0.8 76
2019-10-19 09:00:00 8.2 11 Sudeste 19 Sudeste 0 882.7 -1.4 80
2019-10-19 08:00:00 8.4 13 Sudeste 19 Sudeste 0 883.1 -2.1 80
2019-10-19 07:00:00 8.4 7 Sudeste 14 Sudeste 0 883.7 -1.6 83
2019-10-19 06:00:00 8.6 8 Sudeste 12 Sur 0 884.1 -1 85
2019-10-19 05:00:00 8.8 5 Oeste 11 Noroeste 0 885.2 -0.7 86
2019-10-19 04:00:00 8.7 6 Oeste 11 Noroeste 0 885.3 -0.9 86
2019-10-19 03:00:00 8.7 6 Sudeste 12 Sudeste 0 885.1 -1.4 87
2019-10-19 02:00:00 8.5 0 Calma 12 Noroeste 0 885.9 -1.1 91
2019-10-19 01:00:00 9.2 0 Calma 8 Este 0 886.2 -1.1 80
2019-10-19 00:00:00 10.1 5 Sudeste 7 Nordeste 0 886.5 -0.8 83
2019-10-18 23:00:00 11.3 4 Nordeste 17 Noroeste 0 887 -0.2 79
2019-10-18 22:00:00 12.7 10 Noroeste 17 Noroeste 0 887.3 0.3 79
2019-10-18 21:00:00 13.6 7 Norte 18 Noroeste 0 887.3 0.1 83
2019-10-18 20:00:00 14.3 9 Norte 14 Norte 0 887.2 -0.4 82
2019-10-18 19:00:00 15.4 10 Norte 18 Norte 0 887 -1.1 77
2019-10-18 18:00:00 16.1 9 Norte 16 Norte 0 887.2 -1.2 74
2019-10-18 17:00:00 16.7 9 Norte 19 Norte 0 887.6 -1.3 70
2019-10-18 16:00:00 16.9 13 Norte 29 Norte 0 888.1 -1.7 70
2019-10-18 15:00:00 20.1 8 Oeste 17 Sudoeste 0 888.4 -1.6 45
2019-10-18 14:00:00 19.1 5 Noroeste 19 Norte 0 888.9 -1.2 61
2019-10-18 13:00:00 17.6 6 Noroeste 13 Noroeste 0 889.8 -0.3 58
2019-10-18 12:00:00 16.6 7 Noroeste 13 Noroeste 0 890 0.4 64
2019-10-18 11:00:00 15.4 4 Sudoeste 16 Sur 0 890.1 0.8 71
2019-10-18 10:00:00 14.2 10 Oeste 19 Sudoeste 0 890.1 0.9 75
2019-10-18 09:00:00 13.7 5 Oeste 17 Oeste 0 889.6 0.5 83
2019-10-18 08:00:00 13.3 8 Oeste 15 Noroeste 0 889.3 0.2 87
2019-10-18 07:00:00 13.2 4 Sudoeste 15 Sur 0 889.2 -0.1 86
2019-10-18 06:00:00 13.6 8 Sur 18 Sur 0 889.1 -0.5 84
2019-10-18 05:00:00 13.3 5 Sudeste 19 Sur 0 889.1 -1 87
2019-10-18 04:00:00 12.7 8 Sudeste 19 Sur 0 889.3 -1 87
2019-10-18 03:00:00 12.9 11 Sur 21 Sudoeste 0 889.6 -1.1 85
2019-10-18 02:00:00 12.5 9 Sudeste 16 Sudeste 0 890.1 -0.5 88
2019-10-18 01:00:00 12.7 7 Sudeste 16 Sudoeste 0 890.3 -0.3 87
2019-10-18 00:00:00 13.2 9 Sur 23 Sudeste 0 890.7 0.1 85
2019-10-17 23:00:00 13.4 11 Sudeste 23 Sudeste 0.2 890.6 0.2 85
2019-10-17 22:00:00 13.6 10 Sudeste 20 Sur 0 890.6 0.5 81
2019-10-17 21:00:00 14 9 Sudeste 17 Sur 0 890.6 0.8 80
2019-10-17 20:00:00 15.6 9 Sudeste 21 Oeste 0 890.4 0.4 74
2019-10-17 19:00:00 17.5 15 Oeste 27 Oeste 0 890.1 0.2 63
2019-10-17 18:00:00 18.8 12 Oeste 24 Noroeste 0 889.8 -0.4 58
2019-10-17 17:00:00 18.9 14 Oeste 27 Oeste 0 890 -0.6 57
2019-10-17 16:00:00 20.8 13 Oeste 27 Noroeste 0 889.9 -1.1 51
2019-10-17 15:00:00 20.2 15 Oeste 29 Sudoeste 0 890.2 -0.8 53
2019-10-17 14:00:00 19.5 15 Oeste 32 Sudoeste 0 890.6 -0.3 55
2019-10-17 13:00:00 17.1 15 Oeste 30 Sudoeste 0 891 0.4 67
2019-10-17 12:00:00 15.1 15 Sudoeste 29 Sudoeste 0 891 1.3 76
2019-10-17 11:00:00 13.4 10 Sudoeste 21 Sudoeste 0 890.9 1.3 83
2019-10-17 10:00:00 11.6 9 Sudoeste 23 Sudoeste 0 890.6 1.4 88
2019-10-17 09:00:00 10.2 10 Sur 19 Sur 1.4 889.7 0.9 91
2019-10-17 08:00:00 10.6 11 Sur 18 Sudoeste 0.6 889.6 0.3 83
2019-10-17 07:00:00 10.5 10 Sudeste 16 Sudeste 0 889.2 -0.3 69
2019-10-17 06:00:00 9.6 9 Sur 15 Sur 0 888.8 -0.6 75
2019-10-17 05:00:00 8.8 3 Sudeste 6 Sudoeste 0 889.3 -0.6 79
2019-10-17 04:00:00 8.7 3 Oeste 9 Oeste 0 889.5 -0.6 78
2019-10-17 03:00:00 8.6 4 Sudeste 13 Sur 0 889.4 -1.5 76
2019-10-17 02:00:00 9 7 Sur 9 Sur 0 889.9 -0.7 78
2019-10-17 01:00:00 9.2 0 Calma 10 Oeste 0 890.1 -0.3 75
2019-10-17 00:00:00 9.9 5 Sur 10 Sur 0 890.9 0.3 70
2019-10-16 23:00:00 10.2 4 Sudeste 10 Sudeste 0 890.6 0.2 66
2019-10-16 22:00:00 11.2 6 Este 16 Este 0 890.4 0.4 61
2019-10-16 21:00:00 12.3 11 Este 20 Sudeste 0 890.6 0.9 56
2019-10-16 20:00:00 13.3 8 Este 20 Sur 0 890.4 0.8 52
2019-10-16 19:00:00 15.9 10 Sudeste 20 Sudeste 0 890 -0.1 44
2019-10-16 18:00:00 17.4 10 Sudeste 21 Sudeste 0 889.7 -1 39
2019-10-16 17:00:00 17.7 12 Sudeste 22 Sudeste 0 889.6 -1.9 38
2019-10-16 16:00:00 18 8 Sudeste 17 Sudeste 0 890.1 -1.7 36
2019-10-16 15:00:00 17.2 5 Sudeste 19 Sur 0 890.7 -1.3 38
2019-10-16 14:00:00 15.7 12 Sudeste 24 Sudeste 0 891.5 -0.9 42
2019-10-16 13:00:00 14.2 10 Sur 19 Sur 0 891.8 -0.7 45
2019-10-16 12:00:00 11.8 7 Sudeste 15 Sudeste 0 892 -0.3 60
2019-10-16 11:00:00 8.3 5 Sudeste 9 Sudeste 0 892.4 0.6 69
2019-10-16 10:00:00 5.6 2 Sur 8 Sur 0 892.5 1.1 78
2019-10-16 09:00:00 4.1 4 Sur 5 Sur 0 892.3 0.6 85
2019-10-16 08:00:00 4.4 0 Calma 7 Sur 0 891.8 -0.1 83
2019-10-16 07:00:00 4.3 0 Calma 6 Sur 0 891.4 -0.6 85
2019-10-16 06:00:00 4.9 5 Sur 8 Sur 0 891.7 -0.9 82
2019-10-16 05:00:00 5.4 2 Sudeste 8 Sur 0 891.9 -0.8 81
2019-10-16 04:00:00 6.1 4 Sudeste 7 Sudeste 0 892 -0.8 77
2019-10-16 03:00:00 7.4 3 Sudoeste 12 Sudeste 0 892.6 -0.3 71
2019-10-16 02:00:00 7.3 0 Calma 8 Sur 0 892.7 -0.3 74
2019-10-16 01:00:00 8.4 4 Sur 9 Sur 0 892.8 -0.2 70
2019-10-16 00:00:00 8.5 7 Sur 14 Sudoeste 0 892.9 0.1 72
2019-10-15 23:00:00 8.1 8 Sudeste 15 Sudeste 0 893 0.5 72
2019-10-15 22:00:00 8.9 3 Oeste 9 Norte 0 893 0.8 67
2019-10-15 21:00:00 9.6 6 Norte 15 Norte 0 892.8 0.7 64
2019-10-15 20:00:00 10.4 8 Norte 22 Noroeste 0 892.5 0.4 60
2019-10-15 19:00:00 11.8 15 Noroeste 24 Noroeste 0 892.2 0.2 53
2019-10-15 18:00:00 12.9 13 Noroeste 26 Norte 0 892.1 0 47
2019-10-15 17:00:00 13.4 14 Noroeste 24 Noroeste 0 892.1 -0.7 48
2019-10-15 16:00:00 13.3 9 Noroeste 19 Noroeste 0 892 -1.2 49
2019-10-15 15:00:00 12.8 12 Norte 19 Norte 0 892.1 -1.2 49
2019-10-15 14:00:00 11.2 8 Noroeste 20 Noroeste 0 892.8 -0.2 55
2019-10-15 13:00:00 10.8 10 Oeste 23 Oeste 0 893.2 0.7 56
2019-10-15 12:00:00 9.3 10 Noroeste 24 Noroeste 0 893.3 1.3 62
2019-10-15 11:00:00 8.1 6 Oeste 10 Noroeste 0 893 1.2 70
2019-10-15 10:00:00 6.1 7 Sur 14 Oeste 0 892.5 1.2 76
2019-10-15 09:00:00 4.6 9 Oeste 17 Oeste 0 892 0.7 80
2019-10-15 08:00:00 3.8 6 Sudoeste 13 Sudoeste 0 891.8 0.8 83
2019-10-15 07:00:00 3.9 8 Sudoeste 18 Oeste 0 891.3 0.4 83
2019-10-15 06:00:00 3.6 5 Oeste 10 Oeste 0 891.3 0.2 85
2019-10-15 05:00:00 4.2 6 Oeste 16 Noroeste 0 891 0 81
2019-10-15 04:00:00 4.6 12 Oeste 21 Noroeste 0 890.9 0.7 80
2019-10-15 03:00:00 5.1 13 Oeste 28 Oeste 0 891.1 1.2 79
2019-10-15 02:00:00 5 7 Oeste 27 Oeste 0 891 1.5 78
2019-10-15 01:00:00 5.5 13 Oeste 28 Oeste 0 890.2 1.3 80
2019-10-15 00:00:00 5.9 15 Oeste 30 Oeste 0 889.9 1.5 80
2019-10-14 23:00:00 6.5 14 Oeste 33 Oeste 0 889.5 1.9 81
2019-10-14 22:00:00 6.9 11 Oeste 28 Oeste 0 888.9 2 81
2019-10-14 21:00:00 6.3 17 Oeste 43 Oeste 0.4 888.4 1.4 83
2019-10-14 20:00:00 7.9 14 Sudoeste 29 Sudoeste 0.2 887.6 1.6 78
2019-10-14 19:00:00 9 10 Oeste 27 Oeste 0 886.9 2.3 81
2019-10-14 18:00:00 8.2 13 Sudoeste 38 Oeste 2 887 2.4 81
2019-10-14 17:00:00 9.5 21 Oeste 39 Oeste 3.4 886 1.2 81
2019-10-14 16:00:00 15.8 19 Sur 38 Sur 0 884.6 -0.4 49
2019-10-14 15:00:00 17.2 19 Sur 37 Sur 0 884.6 -0.5 45
2019-10-14 14:00:00 16.6 21 Sur 41 Sur 0 884.8 0.1 40
2019-10-14 13:00:00 16.2 16 Sur 35 Sudoeste 0 885 1 46
2019-10-14 12:00:00 14.7 14 Sudoeste 30 Sur 0 885.1 1.3 54
2019-10-14 11:00:00 14.5 17 Sudoeste 67 Sur 0 884.7 0.9 68
2019-10-14 10:00:00 12.8 26 Sur 51 Sur 0 884 1.1 72
2019-10-14 09:00:00 13.6 15 Sudoeste 52 Sudoeste 0 883.8 1.2 63
2019-10-14 08:00:00 14.9 26 Sudoeste 48 Sudoeste 0 883.8 0.6 59
2019-10-14 07:00:00 15.5 13 Sudoeste 32 Sur 0 882.9 -1.1 62
2019-10-14 06:00:00 16.1 11 Sur 28 Sur 0 882.6 -2 59
2019-10-14 05:00:00 16 10 Este 20 Sudeste 0 883.2 -2 58
2019-10-14 04:00:00 16 11 Sudeste 22 Sur 0 884 -1.9 57
2019-10-14 03:00:00 15.6 11 Sur 26 Sur 0 884.6 -2.1 61
2019-10-14 02:00:00 15.6 13 Sur 27 Sudeste 0 885.2 -2 61
2019-10-14 01:00:00 15.6 12 Sudeste 27 Sur 0 885.9 -1.6 62
2019-10-14 00:00:00 15.4 12 Sudeste 26 Sudeste 0 886.7 -0.8 61
2019-10-13 23:00:00 15 8 Este 15 Sudeste 0 887.2 -0.5 59
2019-10-13 22:00:00 16.4 10 Sudeste 23 Sur 0 887.5 -0.2 53
2019-10-13 21:00:00 16.2 12 Sur 22 Sur 0 887.5 -0.4 53
2019-10-13 20:00:00 17.1 6 Sur 24 Sur 0 887.7 -0.3 51
2019-10-13 19:00:00 18.6 12 Sur 38 Sur 0 887.7 -0.5 45
2019-10-13 18:00:00 19.6 17 Sur 39 Sur 0 887.9 -0.2 41
2019-10-13 17:00:00 20.2 18 Sur 41 Sur 0 888 -0.5 37
2019-10-13 16:00:00 20.8 20 Sur 38 Sur 0 888.2 -0.5 37
2019-10-13 15:00:00 21.2 21 Sur 42 Sur 0 888.1 -0.8 38
2019-10-13 14:00:00 20.6 20 Sur 41 Sur 0 888.5 -0.1 41
2019-10-13 13:00:00 19.2 16 Sur 33 Sudeste 0 888.7 0 43
2019-10-13 12:00:00 17.6 19 Sur 35 Sudeste 0 888.9 0.5 54
2019-10-13 11:00:00 16.6 10 Sudeste 24 Sudeste 0 888.6 0.7 62
2019-10-13 10:00:00 14.3 11 Sudeste 21 Sudeste 0 888.7 1 76
2019-10-13 09:00:00 13.1 8 Sudeste 19 Sur 0 888.4 1.2 81
2019-10-13 08:00:00 13.2 8 Sur 22 Sur 0 887.9 0.7 81
2019-10-13 07:00:00 13.6 11 Sur 27 Sudeste 0 887.7 -0.3 86
2019-10-13 06:00:00 13.9 8 Sur 28 Sur 0 887.2 -1.2 86
2019-10-13 05:00:00 14.2 12 Sudeste 39 Sudeste 0 887.2 -1.4 80
2019-10-13 04:00:00 14.9 13 Sudeste 35 Sur 0 888 -1.1 74
2019-10-13 03:00:00 15.1 14 Sudeste 29 Sur 0 888.4 -0.7 64
2019-10-13 02:00:00 15 12 Sudeste 28 Sudeste 0 888.6 -0.1 61
2019-10-13 01:00:00 15.3 15 Sudeste 28 Sudeste 0 889.1 0.4 60
2019-10-13 00:00:00 16 13 Sudeste 32 Sudeste 0 889.1 0.7 57
2019-10-12 23:00:00 16.9 17 Sudeste 30 Sudeste 0 888.7 0.3 53
2019-10-12 22:00:00 17.6 12 Sudeste 26 Sudeste 0 888.7 -0.1 52
2019-10-12 21:00:00 17.4 6 Sudeste 17 Sudeste 0 888.4 0 49
2019-10-12 20:00:00 19 10 Sur 27 Sur 0 888.4 -0.5 46
2019-10-12 19:00:00 20.5 14 Sur 41 Sudoeste 0 888.8 -0.2 42
2019-10-12 18:00:00 22.3 17 Sur 46 Sur 0 888.4 -1.1 37
2019-10-12 17:00:00 23.5 23 Sur 45 Sur 0 888.9 -1.2 35
2019-10-12 16:00:00 24.2 18 Sur 38 Sur 0 889 -1.8 37
2019-10-12 15:00:00 23.4 16 Sur 35 Sudeste 0 889.5 -1.1 43
2019-10-12 14:00:00 19.8 15 Sudeste 33 Sur 0 890.1 -0.5 52
2019-10-12 13:00:00 19.9 15 Sur 31 Sur 0 890.8 0.5 49
2019-10-12 12:00:00 19.7 13 Sudeste 25 Sudeste 0 890.6 0.7 49
2019-10-12 11:00:00 19.2 7 Sur 23 Sur 0 890.6 0.6 50
2019-10-12 10:00:00 18 14 Sur 30 Sudeste 0 890.3 0 50
2019-10-12 09:00:00 16.8 12 Sudeste 25 Sudeste 0 889.9 -0.3 62
2019-10-12 08:00:00 18.2 14 Sur 25 Sur 0 890 -0.2 51
2019-10-12 07:00:00 17.7 8 Sudoeste 16 Sudoeste 0 890.3 -0.1 53
2019-10-12 06:00:00 18.5 11 Sudoeste 25 Sudoeste 0 890.2 -0.8 51
2019-10-12 05:00:00 18 5 Sudoeste 13 Sudoeste 0 890.2 -0.8 55
2019-10-12 04:00:00 18.4 5 Sudoeste 17 Oeste 0 890.4 -1.1 55
2019-10-12 03:00:00 18.3 6 Sur 19 Sudeste 0 891 -0.6 56
2019-10-12 02:00:00 18.5 8 Sudeste 19 Sur 0 891 -0.7 57
2019-10-12 01:00:00 18.5 5 Sur 13 Sur 0 891.5 0.3 58
2019-10-12 00:00:00 19.2 7 Sudeste 19 Sur 0 891.6 0.3 58
2019-10-11 23:00:00 19.8 11 Sur 28 Sudeste 0 891.7 0.6 55
2019-10-11 22:00:00 19.2 6 Sudeste 17 Sudeste 0 891.2 -0.1 58
2019-10-11 21:00:00 19.9 10 Sudeste 28 Sudeste 0 891.3 0 57
2019-10-11 20:00:00 20.5 12 Sur 22 Sur 0 891.1 -0.2 55
2019-10-11 19:00:00 21.7 11 Sur 30 Sur 0 891.3 -0.4 49
2019-10-11 18:00:00 23.4 13 Sur 31 Sur 0 891.3 -1 47
2019-10-11 17:00:00 23.8 14 Sur 28 Sudeste 0 891.3 -1.8 47
2019-10-11 16:00:00 23.4 13 Sur 32 Sudoeste 0 891.7 -2.1 46
2019-10-11 15:00:00 23.8 15 Sur 31 Sur 0 892.3 -1.7 45
2019-10-11 14:00:00 22.6 12 Sudeste 30 Sur 0 893.1 -1.1 52
2019-10-11 13:00:00 21.4 14 Sudeste 28 Sudeste 0 893.8 0.1 57
2019-10-11 12:00:00 19.7 13 Sur 31 Sur 0 894 0.7 65
2019-10-11 11:00:00 17.4 16 Sur 30 Sur 0 894.2 1.1 73
2019-10-11 10:00:00 15.9 15 Sur 28 Sur 0 893.7 0.7 78
2019-10-11 09:00:00 14.6 13 Sudeste 27 Sur 0 893.3 0.4 82
2019-10-11 08:00:00 14.6 9 Sur 18 Sur 0 893.1 0.2 82
2019-10-11 07:00:00 15.1 10 Sur 18 Sur 0 893 -0.2 78
2019-10-11 06:00:00 15.6 12 Sur 22 Sur 0 892.9 -0.5 75
2019-10-11 05:00:00 15.6 13 Sur 21 Sur 0 892.9 -0.7 71
2019-10-11 04:00:00 15.9 10 Sur 20 Sur 0 893.2 -0.5 67
2019-10-11 03:00:00 15.6 10 Sudeste 17 Sur 0 893.4 -0.2 66
2019-10-11 02:00:00 13.6 4 Sudeste 9 Sur 0 893.6 0.1 64
2019-10-11 01:00:00 13.8 3 Sur 8 Sudeste 0 893.7 0.4 61
2019-10-11 00:00:00 15.4 6 Sudeste 10 Sudeste 0 893.6 0.6 59
2019-10-10 23:00:00 16.2 6 Sudeste 10 Sudeste 0 893.5 0.8 59
2019-10-10 22:00:00 16.1 5 Sudeste 8 Sudeste 0 893.3 0.8 59
2019-10-10 21:00:00 18.6 0 Calma 9 Este 0 893 0.8 51
2019-10-10 20:00:00 21 3 Norte 12 Nordeste 0 892.7 0.6 37
2019-10-10 19:00:00 22.9 9 Sudeste 20 Este 0 892.5 0.2 40
2019-10-10 18:00:00 23.8 13 Sudeste 25 Sudeste 0 892.2 -0.4 38
2019-10-10 17:00:00 23.8 13 Sudeste 30 Sudeste 0 892.1 -1.3 37
2019-10-10 16:00:00 23.9 16 Sudeste 29 Sudeste 0 892.3 -1.5 37
2019-10-10 15:00:00 23.2 13 Sudeste 28 Sudeste 0 892.6 -1.3 40
2019-10-10 14:00:00 21.5 13 Sudeste 24 Sudeste 0 893.4 -0.7 49
2019-10-10 13:00:00 20.4 11 Sur 22 Sur 0 893.8 0.2 52
2019-10-10 12:00:00 18.9 6 Sudeste 20 Sudeste 0 893.9 0.8 58
2019-10-10 11:00:00 16.4 9 Sudeste 15 Este 0 894.1 1.2 70
2019-10-10 10:00:00 11.8 2 Sur 5 Sur 0 893.6 0.8 68
2019-10-10 09:00:00 7.8 0 Calma 7 Sudeste 0 893.1 0.4 78
2019-10-10 08:00:00 7.8 4 Sur 6 Sur 0 892.9 0.1 76
2019-10-10 07:00:00 7.7 4 Sudeste 7 Sur 0 892.8 -0.1 76
2019-10-10 06:00:00 8.1 2 Sur 9 Sur 0 892.7 -0.5 73
2019-10-10 05:00:00 8 3 Sur 7 Sudoeste 0 892.8 -0.5 72
2019-10-10 04:00:00 8.9 4 Sur 9 Sur 0 892.9 -0.6 69
2019-10-10 03:00:00 9.3 3 Sur 6 Sudeste 0 893.2 -0.2 67
2019-10-10 02:00:00 10.2 0 Calma 6 Sudeste 0 893.3 0 65
2019-10-10 01:00:00 11.7 3 Sudeste 9 Nordeste 0 893.5 0.6 62
2019-10-10 00:00:00 13.3 6 Norte 12 Nordeste 0 893.4 0.9 57
2019-10-09 23:00:00 14.4 5 Norte 10 Norte 0 893.3 1.3 47
2019-10-09 22:00:00 15.7 8 Norte 18 Norte 0 892.9 1.3 44
2019-10-09 21:00:00 17.1 8 Norte 14 Norte 0 892.5 1.1 43
2019-10-09 20:00:00 19 9 Norte 22 Norte 0 892 0.4 41
2019-10-09 19:00:00 20.9 15 Noroeste 23 Norte 0 891.6 -0.3 38
2019-10-09 18:00:00 21.4 15 Norte 26 Norte 0 891.4 -0.6 37
2019-10-09 17:00:00 21.8 13 Norte 30 Noroeste 0 891.6 -0.8 37
2019-10-09 16:00:00 21.4 12 Norte 24 Norte 0 891.9 -0.9 33
2019-10-09 15:00:00 21 12 Norte 23 Noroeste 0 892 -1.2 40
2019-10-09 14:00:00 19.8 11 Noroeste 17 Noroeste 0 892.4 -1 48
2019-10-09 13:00:00 17.9 7 Norte 19 Norte 0 892.8 0 61
2019-10-09 12:00:00 15.6 10 Norte 21 Norte 0 893.2 0.7 70
2019-10-09 11:00:00 14.5 12 Norte 26 Nordeste 0 893.4 0.8 74
2019-10-09 10:00:00 13.8 13 Norte 22 Noroeste 0 892.8 0.5 88
2019-10-09 09:00:00 14.3 10 Noroeste 20 Norte 0 892.5 1.1 86
2019-10-09 08:00:00 14.5 9 Norte 15 Noroeste 0 892.6 1 90
2019-10-09 07:00:00 13.7 10 Norte 15 Norte 0 892.3 0.4 87
2019-10-09 06:00:00 13.3 6 Sudeste 12 Sudeste 0 891.4 -0.8 82
2019-10-09 05:00:00 14.3 2 Sudoeste 12 Oeste 0 891.6 -0.5 74
2019-10-09 04:00:00 15.4 4 Oeste 15 Noroeste 0 891.9 -0.6 76
2019-10-09 03:00:00 15.6 8 Noroeste 18 Noroeste 0 892.2 -0.4 72
2019-10-09 02:00:00 14.6 4 Sudeste 8 Sudeste 0 892.1 -0.5 67
2019-10-09 01:00:00 15.6 2 Sur 5 Sur 0 892.5 0.1 62
2019-10-09 00:00:00 17.3 4 Sur 8 Oeste 0 892.6 0.5 57
2019-10-08 23:00:00 19.6 4 Oeste 17 Noroeste 0 892.6 1 50
2019-10-08 22:00:00 20.7 9 Noroeste 22 Oeste 0 892.4 1.2 47
2019-10-08 21:00:00 22.2 9 Norte 13 Norte 0 892.1 0.9 39
2019-10-08 20:00:00 24.3 9 Noroeste 20 Noroeste 0 891.6 0.2 33
2019-10-08 19:00:00 26.4 15 Noroeste 24 Noroeste 0 891.2 -0.4 29
2019-10-08 18:00:00 27.8 13 Noroeste 26 Noroeste 0 891.2 -0.7 27
2019-10-08 17:00:00 28.2 13 Noroeste 24 Noroeste 0 891.4 -1.1 26
2019-10-08 16:00:00 28.3 10 Sur 18 Sudoeste 0 891.6 -1.6 28
2019-10-08 15:00:00 28 6 Sur 14 Noroeste 0 891.9 -1.7 28
2019-10-08 14:00:00 26.9 7 Oeste 14 Sudoeste 0 892.5 -1.2 31
2019-10-08 13:00:00 25.3 6 Oeste 19 Sudeste 0 893.2 -0.3 34
2019-10-08 12:00:00 22.7 7 Sudeste 15 Sudeste 0 893.6 0.1 39
2019-10-08 11:00:00 18.5 3 Sur 6 Sudeste 0 893.7 0.4 49
2019-10-08 10:00:00 15.1 4 Sur 6 Sur 0 893.5 0.4 55
2019-10-08 09:00:00 11 3 Sudeste 6 Sudeste 0 893.5 0.5 67
2019-10-08 08:00:00 10.9 0 Calma 8 Sur 0 893.3 0.1 67
2019-10-08 07:00:00 10.5 2 Sudeste 7 Sur 0 893.1 -0.4 67
2019-10-08 06:00:00 10.5 4 Sur 7 Sudoeste 0 893 -0.9 62
2019-10-08 05:00:00 11 3 Sur 6 Sudoeste 0 893.2 -0.9 62
2019-10-08 04:00:00 12.1 5 Sur 13 Sudeste 0 893.5 -0.9 56
2019-10-08 03:00:00 12.1 4 Sudeste 7 Sur 0 893.9 -0.9 58
2019-10-08 02:00:00 12.6 3 Este 8 Sudoeste 0 894.1 -0.6 57
2019-10-08 01:00:00 13 3 Sudeste 8 Sur 0 894.4 0.1 54
2019-10-08 00:00:00 14.5 5 Sur 12 Sudoeste 0 894.8 0.8 47
2019-10-07 23:00:00 15.4 2 Sudoeste 6 Sur 0 894.7 1 51
2019-10-07 22:00:00 16.8 3 Sudeste 5 Sur 0 894.3 0.7 46
2019-10-07 21:00:00 19.5 3 Noroeste 9 Norte 0 894 0.3 39
2019-10-07 20:00:00 21.7 6 Norte 17 Noroeste 0 893.7 -0.1 34
2019-10-07 19:00:00 23.5 14 Noroeste 23 Norte 0 893.6 -0.1 31
2019-10-07 18:00:00 24.2 12 Norte 24 Noroeste 0 893.7 -0.3 30
2019-10-07 17:00:00 24 14 Norte 26 Noroeste 0 893.8 -0.7 31
2019-10-07 16:00:00 23.8 13 Norte 22 Norte 0 893.7 -1 30
2019-10-07 15:00:00 23.8 12 Norte 22 Noroeste 0 894 -0.9 27
2019-10-07 14:00:00 22.9 10 Noroeste 21 Nordeste 0 894.5 -0.4 27
2019-10-07 13:00:00 21.7 10 Norte 17 Norte 0 894.7 0.1 25
2019-10-07 12:00:00 20.1 8 Norte 14 Noroeste 0 894.9 0.6 24
2019-10-07 11:00:00 17 5 Sur 8 Sur 0 894.9 0.9 41
2019-10-07 10:00:00 13.9 3 Noroeste 6 Sur 0 894.6 1.1 47
2019-10-07 09:00:00 10.4 0 Calma 6 Sur 0 894.3 0.7 65
2019-10-07 08:00:00 10.8 3 Sudeste 7 Sur 0 894 0.4 62
2019-10-07 07:00:00 11.6 3 Sudoeste 8 Oeste 0 893.5 -0.1 58
2019-10-07 06:00:00 12.7 4 Sudeste 12 Noroeste 0 893.6 -1.1 56
2019-10-07 05:00:00 14.4 13 Noroeste 23 Noroeste 0 893.6 -1.1 49
2019-10-07 04:00:00 14.6 17 Noroeste 26 Noroeste 0 893.6 -1.4 53
2019-10-07 03:00:00 12.1 4 Oeste 13 Sudoeste 0 894.7 -0.2 58
2019-10-07 02:00:00 12.8 6 Sudoeste 12 Sudoeste 0 894.7 -0.1 56
2019-10-07 01:00:00 12.7 8 Sur 11 Sur 0 895 0.7 58
2019-10-07 00:00:00 13.6 3 Sudoeste 6 Norte 0 894.9 0.9 56
2019-10-06 23:00:00 15.6 5 Noroeste 11 Norte 0 894.8 1.1 49
2019-10-06 22:00:00 17 8 Norte 18 Norte 0 894.3 0.8 47
2019-10-06 21:00:00 17.9 12 Norte 19 Norte 0 894 0.7 45
2019-10-06 20:00:00 19.9 12 Norte 25 Noroeste 0 893.7 0.2 39
2019-10-06 19:00:00 22.3 15 Noroeste 26 Noroeste 0 893.5 -0.3 32
2019-10-06 18:00:00 22.8 14 Noroeste 22 Noroeste 0 893.3 -0.9 31
2019-10-06 17:00:00 22.7 13 Norte 24 Noroeste 0 893.5 -1 29
2019-10-06 16:00:00 22.3 9 Noroeste 28 Norte 0 893.8 -0.9 34
2019-10-06 15:00:00 21.1 10 Norte 25 Norte 0 894.2 -0.5 40
2019-10-06 14:00:00 20.1 14 Norte 27 Norte 0 894.5 0 37
2019-10-06 13:00:00 19.4 9 Norte 17 Norte 0 894.7 0.4 35
2019-10-06 12:00:00 17.4 7 Noroeste 12 Norte 0 894.7 0.6 49
2019-10-06 11:00:00 14.3 3 Sudoeste 9 Sudeste 0 894.5 1.1 54
2019-10-06 10:00:00 10 5 Sur 10 Sudeste 0 894.3 1.6 64
2019-10-06 09:00:00 7.4 2 Sur 8 Sur 0 894.1 1.2 73
2019-10-06 08:00:00 6.7 0 Calma 3 Sur 0 893.4 0.9 74
2019-10-06 07:00:00 8 4 Sur 10 Sudeste 0 892.7 -0.2 68
2019-10-06 06:00:00 8.5 3 Sudeste 8 Sur 0 892.9 0.1 67
2019-10-06 05:00:00 9.1 4 Este 7 Sur 0 892.5 -0.5 69
2019-10-06 04:00:00 10.2 0 Calma 8 Sudeste 0 892.9 -0.4 67
2019-10-06 03:00:00 10.8 3 Sudeste 8 Sudeste 0 892.8 -0.3 66
2019-10-06 02:00:00 11.9 3 Sur 8 Sur 0 893 0.4 61
2019-10-06 01:00:00 12.8 5 Noroeste 10 Noroeste 0 893.3 0.9 58
2019-10-06 00:00:00 14.2 2 Oeste 7 Noroeste 0 893.1 1.1 52
2019-10-05 23:00:00 16.7 6 Oeste 13 Oeste 0 892.6 1.2 43
2019-10-05 22:00:00 17.5 4 Oeste 17 Norte 0 892.4 1.5 41
2019-10-05 21:00:00 19.2 11 Noroeste 19 Norte 0 892 1.5 41
2019-10-05 20:00:00 21 12 Noroeste 24 Noroeste 0 891.4 1.1 40
2019-10-05 19:00:00 23.1 17 Noroeste 25 Noroeste 0 890.9 0.5 33
2019-10-05 18:00:00 24.2 13 Noroeste 41 Norte 0 890.5 -0.2 28
2019-10-05 17:00:00 24.8 15 Noroeste 29 Noroeste 0 890.3 -0.8 27
2019-10-05 16:00:00 24.5 13 Norte 28 Norte 0 890.4 -0.8 36
2019-10-05 15:00:00 24.8 8 Noroeste 19 Norte 0 890.7 -0.7 33
2019-10-05 14:00:00 23.3 7 Oeste 15 Sudoeste 0 891.1 -0.4 31
2019-10-05 13:00:00 22 6 Este 11 Sudeste 0 891.2 0 41
2019-10-05 12:00:00 19.5 3 Sudoeste 7 Sudoeste 0 891.4 0.4 55
2019-10-05 11:00:00 15.6 3 Sudoeste 6 Sudoeste 0 891.5 1 65
2019-10-05 10:00:00 12.3 2 Sur 6 Sur 0 891.2 0.9 79
2019-10-05 09:00:00 8.6 2 Sur 5 Sur 0 891 0.5 95
2019-10-05 08:00:00 8.5 3 Sur 5 Sudeste 0 890.5 -0.2 91
2019-10-05 07:00:00 8.9 3 Sur 7 Sudoeste 0 890.3 -0.5 91
2019-10-05 06:00:00 9.3 2 Sudeste 6 Sur 0 890.5 -0.6 88
2019-10-05 05:00:00 9.6 2 Sudoeste 6 Sudoeste 0 890.7 -0.5 88
2019-10-05 04:00:00 10.2 3 Sur 5 Sur 0 890.8 -0.9 88
2019-10-05 03:00:00 10.9 3 Sur 5 Sur 0 891.1 -0.5 85
2019-10-05 02:00:00 11.5 3 Sur 6 Sur 0 891.2 -0.2 84
2019-10-05 01:00:00 12.4 0 Calma 6 Sudoeste 0 891.7 0.5 83
2019-10-05 00:00:00 13.7 4 Sudoeste 6 Sudoeste 0 891.6 0.7 78
2019-10-04 23:00:00 15 3 Noroeste 7 Sur 0 891.4 0.8 74
2019-10-04 22:00:00 16.8 5 Sudeste 8 Sur 0 891.2 0.8 69
2019-10-04 21:00:00 18.4 5 Nordeste 9 Norte 0 890.9 0.4 64
2019-10-04 20:00:00 19.8 5 Nordeste 17 Norte 0 890.6 -0.2 60
2019-10-04 19:00:00 21.1 10 Noroeste 16 Noroeste 0 890.4 -0.9 56
2019-10-04 18:00:00 21.4 9 Norte 18 Noroeste 0 890.5 -1.3 55
2019-10-04 17:00:00 21 10 Norte 33 Norte 0 890.8 -1.2 57
2019-10-04 16:00:00 21.1 17 Norte 30 Noroeste 0 891.3 -0.9 56
2019-10-04 15:00:00 21.2 16 Noroeste 26 Norte 0 891.8 -0.5 55
2019-10-04 14:00:00 20.3 14 Norte 23 Norte 0 892 -0.4 60
2019-10-04 13:00:00 19.7 13 Norte 22 Norte 0 892.2 -0.3 58
2019-10-04 12:00:00 19.3 7 Norte 14 Norte 0 892.3 0.2 53
2019-10-04 11:00:00 15.6 4 Sur 9 Sur 0 892.4 0.4 61
2019-10-04 10:00:00 12.3 4 Sur 9 Oeste 0 892.5 0.3 65
2019-10-04 09:00:00 8.7 3 Noroeste 5 Este 0 892.1 0.1 80
2019-10-04 08:00:00 8.8 5 Sur 12 Sur 0 892 -0.5 76
2019-10-04 07:00:00 9.3 2 Oeste 6 Sudeste 0 892.2 -0.8 75
2019-10-04 06:00:00 9.4 3 Sudeste 5 Sur 0 892 -1.5 74
2019-10-04 05:00:00 10.2 5 Sudeste 9 Sur 0 892.5 -1.2 68
2019-10-04 04:00:00 10.8 3 Este 12 Sur 0 893 -0.7 63
2019-10-04 03:00:00 11 2 Sur 8 Sudoeste 0 893.5 -0.4 60
2019-10-04 02:00:00 11.4 5 Oeste 8 Oeste 0 893.7 0.2 59
2019-10-04 01:00:00 11.8 0 Calma 5 Oeste 0 893.7 0.7 56
2019-10-04 00:00:00 12.8 2 Norte 5 Oeste 0 893.9 1.2 54
2019-10-03 23:00:00 13.7 0 Calma 7 Sur 0 893.5 0.9 51
2019-10-03 22:00:00 15.1 3 Sudoeste 7 Sur 0 893 0.5 47
2019-10-03 21:00:00 17.4 4 Sudoeste 9 Noroeste 0 892.7 0.1 40
2019-10-03 20:00:00 20.3 6 Noroeste 24 Noroeste 0 892.6 0 32
2019-10-03 19:00:00 21.9 15 Noroeste 28 Norte 0 892.5 -0.6 27
2019-10-03 18:00:00 22.5 19 Noroeste 32 Noroeste 0 892.6 -0.5 26
2019-10-03 17:00:00 22.9 16 Noroeste 27 Noroeste 0 892.6 -0.6 24
2019-10-03 16:00:00 22.5 18 Noroeste 30 Norte 0 893.1 -0.3 27
2019-10-03 15:00:00 21.6 15 Norte 24 Noroeste 0 893.1 -0.8 29
2019-10-03 14:00:00 20 6 Norte 20 Norte 0 893.2 -0.6 35
2019-10-03 13:00:00 18.9 8 Noroeste 22 Noroeste 0 893.4 -0.1 38
2019-10-03 12:00:00 17.3 13 Norte 26 Norte 0 893.9 0.6 43
2019-10-03 11:00:00 14.5 5 Oeste 8 Oeste 0 893.8 0.8 53
2019-10-03 10:00:00 10 4 Sur 5 Sur 0 893.5 0.8 62
2019-10-03 09:00:00 6.9 3 Este 7 Sur 0 893.3 0.7 75
2019-10-03 08:00:00 6.6 5 Sur 10 Sur 0 893 0.5 75
2019-10-03 07:00:00 6.3 2 Sudeste 6 Sudeste 0 892.7 0.2 77
2019-10-03 06:00:00 6.8 4 Sur 8 Sudoeste 0 892.6 -0.5 76
2019-10-03 05:00:00 7.2 2 Sudeste 5 Sudoeste 0 892.5 -0.8 74
2019-10-03 04:00:00 7.8 0 Calma 8 Sudoeste 0 892.5 -1 72
2019-10-03 03:00:00 8.3 3 Sur 6 Sudoeste 0 893.1 -0.8 70
2019-10-03 02:00:00 8.8 3 Sudoeste 9 Sudoeste 0 893.3 -0.5 68
2019-10-03 01:00:00 9.1 3 Sur 10 Sudoeste 0 893.5 0 66
2019-10-03 00:00:00 10.1 4 Sur 12 Sur 0 893.9 0.7 62
2019-10-02 23:00:00 11.5 4 Sudoeste 7 Norte 0 893.8 0.7 59
2019-10-02 22:00:00 13.2 5 Norte 11 Norte 0 893.5 0.7 53
2019-10-02 21:00:00 14.1 8 Norte 13 Norte 0 893.2 0.9 51
2019-10-02 20:00:00 15.7 8 Norte 21 Noroeste 0 893.1 0.6 45
2019-10-02 19:00:00 17.2 10 Norte 19 Noroeste 0 892.8 0.2 41
2019-10-02 18:00:00 17.5 12 Norte 29 Norte 0 892.3 -0.2 42
2019-10-02 17:00:00 17.4 14 Norte 28 Norte 0 892.5 -0.2 44
2019-10-02 16:00:00 16.9 14 Norte 32 Norte 0 892.6 -0.4 45
2019-10-02 15:00:00 16.4 14 Norte 28 Noroeste 0 892.5 -0.3 42
2019-10-02 14:00:00 15.5 13 Norte 23 Noroeste 0 892.7 0.1 49
2019-10-02 13:00:00 13.9 14 Norte 26 Noroeste 0 893 0.8 54
2019-10-02 12:00:00 12.9 15 Noroeste 26 Noroeste 0 892.8 1.2 61
2019-10-02 11:00:00 11.6 12 Noroeste 24 Noroeste 0 892.6 1.3 67
2019-10-02 10:00:00 9.1 5 Oeste 14 Noroeste 0 892.2 1 81
2019-10-02 09:00:00 8.3 10 Oeste 31 Noroeste 0 891.6 0.7 84
2019-10-02 08:00:00 8.8 21 Noroeste 39 Noroeste 0 891.3 0.4 84
2019-10-02 07:00:00 9.2 23 Noroeste 35 Noroeste 0 891.2 0.2 85
2019-10-02 06:00:00 9.6 17 Noroeste 28 Noroeste 0 890.9 -0.5 86
2019-10-02 05:00:00 9.9 10 Norte 27 Noroeste 0 890.9 -0.6 84
2019-10-02 04:00:00 10.7 15 Noroeste 33 Noroeste 0 891 -0.9 82
2019-10-02 03:00:00 11.3 20 Noroeste 33 Oeste 0 891.4 -0.3 80
2019-10-02 02:00:00 12.2 16 Noroeste 24 Noroeste 0 891.5 0.2 74
2019-10-02 01:00:00 13 12 Noroeste 30 Noroeste 0 891.9 1.2 67
2019-10-02 00:00:00 13.7 6 Noroeste 20 Oeste 0 891.7 1.5 62
2019-10-01 23:00:00 14.6 14 Oeste 20 Noroeste 0 891.3 1.4 60
2019-10-01 22:00:00 15.1 7 Noroeste 14 Oeste 0 890.7 0.7 59
2019-10-01 21:00:00 16.2 9 Oeste 23 Oeste 0 890.2 0.5 56
2019-10-01 20:00:00 17.7 14 Oeste 31 Noroeste 0 889.9 0.1 52
2019-10-01 19:00:00 19.1 22 Noroeste 35 Oeste 0 890 -0.1 49
2019-10-01 18:00:00 20.2 17 Oeste 36 Noroeste 0 889.7 -0.3 45
2019-10-01 17:00:00 19.1 17 Oeste 31 Noroeste 0 889.8 -0.4 55
2019-10-01 16:00:00 18.3 21 Noroeste 36 Oeste 0 890.1 -0.3 58
2019-10-01 15:00:00 20.4 23 Noroeste 41 Noroeste 0 890 -0.8 52
2019-10-01 14:00:00 19 22 Noroeste 37 Noroeste 0 890.2 -0.4 52
2019-10-01 13:00:00 18.5 16 Noroeste 28 Noroeste 0 890.4 0.6 54
2019-10-01 12:00:00 16.5 11 Noroeste 25 Noroeste 0 890.8 1.9 64
2019-10-01 11:00:00 15 14 Noroeste 24 Noroeste 0 890.6 1.8 79
2019-10-01 10:00:00 14.1 8 Nordeste 15 Norte 0 889.8 1.1 68
2019-10-01 09:00:00 11.5 4 Oeste 12 Sudeste 0 888.9 0.4 53
2019-10-01 08:00:00 10.3 4 Sudeste 17 Noroeste 0 888.8 0.2 54
2019-10-01 07:00:00 11 3 Sudeste 9 Sudeste 0 888.7 -0.5 48
2019-10-01 06:00:00 11.4 2 Sudeste 5 Sur 0 888.5 -1.7 48
2019-10-01 05:00:00 11.8 4 Este 10 Sudeste 0 888.6 -1.5 44
2019-10-01 04:00:00 11.7 4 Sudeste 8 Sudeste 0 889.2 -1.1 47
2019-10-01 03:00:00 12 4 Noroeste 6 Noroeste 0 890.2 -0.4 45
2019-10-01 02:00:00 12.8 4 Sudeste 7 Sur 0 890.1 -0.3 42
2019-10-01 01:00:00 15.3 4 Sudeste 12 Sur 0 890.3 -0.3 35
2019-10-01 00:00:00 15.2 6 Sudeste 10 Sudeste 0 890.6 0.2 37
2019-09-30 23:00:00 18.2 6 Sur 14 Sudoeste 0 890.4 0.4 32
2019-09-30 22:00:00 19.4 6 Sur 10 Sur 0 890.6 0.7 32
2019-09-30 21:00:00 21.4 5 Oeste 11 Noroeste 0 890.4 0.5 28
2019-09-30 20:00:00 23.8 8 Oeste 17 Noroeste 0 890 -0.3 26
2019-09-30 19:00:00 26 13 Sudoeste 24 Oeste 0 889.9 -0.7 23
2019-09-30 18:00:00 27.2 15 Nordeste 31 Nordeste 0 889.9 -1.3 22
2019-09-30 17:00:00 27.9 7 Este 19 Sur 0 890.3 -1.6 19
2019-09-30 16:00:00 27.7 6 Sudoeste 19 Sur 0 890.6 -1.8 19
2019-09-30 15:00:00 27.2 7 Sur 21 Sur 0 891.2 -1.6 19
2019-09-30 14:00:00 26.1 7 Sudoeste 17 Sudoeste 0 891.9 -0.9 18
2019-09-30 13:00:00 24.2 6 Sur 13 Sur 0 892.4 -0.3 25
2019-09-30 12:00:00 20.3 3 Sudoeste 10 Sudoeste 0 892.8 0.3 43
2019-09-30 11:00:00 15.8 4 Sudoeste 10 Sur 0 892.8 0.4 51
2019-09-30 10:00:00 12.7 4 Sur 13 Sur 0 892.7 0.3 60
2019-09-30 09:00:00 9.9 4 Sudeste 11 Sudeste 0 892.5 0 70
2019-09-30 08:00:00 9.2 3 Sur 6 Sudeste 0 892.4 -0.4 70
2019-09-30 07:00:00 9.6 2 Sur 6 Sudeste 0 892.4 -0.8 66
2019-09-30 06:00:00 9.7 0 Calma 6 Sur 0 892.5 -1.2 64
2019-09-30 05:00:00 10.5 3 Sur 5 Sudeste 0 892.8 -1 59
2019-09-30 04:00:00 11.1 2 Sudeste 5 Sudeste 0 893.2 -0.5 58
2019-09-30 03:00:00 11.2 0 Calma 4 Sur 0 893.7 0 58
2019-09-30 02:00:00 11.9 0 Calma 3 Sudeste 0 893.8 0.1 56
2019-09-30 01:00:00 12.7 3 Nordeste 7 Sur 0 893.7 0.3 53
2019-09-30 00:00:00 13.9 2 Este 3 Este 0 893.7 1 49
2019-09-29 23:00:00 15.8 3 Sudoeste 5 Sur 0 893.7 1.3 42
2019-09-29 22:00:00 18 2 Oeste 7 Sur 0 893.4 1.1 36
2019-09-29 21:00:00 21 5 Norte 17 Norte 0 892.7 0.3 27
2019-09-29 20:00:00 22.9 10 Noroeste 22 Noroeste 0 892.4 -0.1 27
2019-09-29 19:00:00 24.6 13 Noroeste 24 Noroeste 0 892.3 -0.5 26
2019-09-29 18:00:00 25.2 17 Norte 30 Norte 0 892.4 -0.8 24
2019-09-29 17:00:00 25.6 14 Noroeste 25 Norte 0 892.5 -1.2 26
2019-09-29 16:00:00 25.3 10 Noroeste 28 Noroeste 0 892.8 -0.6 27
2019-09-29 15:00:00 24.9 13 Norte 31 Norte 0 893.2 -0.4 26
2019-09-29 14:00:00 24.3 18 Norte 30 Norte 0 893.7 0.2 27
2019-09-29 13:00:00 25.2 6 Sudoeste 19 Sudoeste 0 893.4 0.3 22
2019-09-29 12:00:00 22.4 7 Sudoeste 12 Sudoeste 0 893.6 0.7 29
2019-09-29 11:00:00 18.1 4 Sur 8 Sur 0 893.5 0.9 40
2019-09-29 10:00:00 13.7 3 Sudoeste 7 Oeste 0 893.1 0.8 48
2019-09-29 09:00:00 10.3 3 Sudeste 10 Sudeste 0 892.9 0.2 57
2019-09-29 08:00:00 8.9 3 Sur 6 Sudeste 0 892.6 -0.1 64
2019-09-29 07:00:00 10.1 6 Sudeste 12 Sudeste 0 892.3 -0.8 59
2019-09-29 06:00:00 10 3 Sur 6 Sur 0 892.7 -0.8 59
2019-09-29 05:00:00 10.2 2 Sur 5 Sur 0 892.7 -0.6 59
2019-09-29 04:00:00 11.4 3 Este 8 Sudeste 0 893.1 -0.5 57
2019-09-29 03:00:00 11.2 0 Calma 6 Sur 0 893.5 -0.2 58
2019-09-29 02:00:00 12.1 3 Sudoeste 8 Sur 0 893.3 -0.4 54
2019-09-29 01:00:00 13.3 3 Sudeste 6 Sur 0 893.6 0.1 52
2019-09-29 00:00:00 14.3 3 Sudeste 5 Sudeste 0 893.7 0.5 51
2019-09-28 23:00:00 15.4 0 Calma 5 Sudeste 0 893.7 0.8 47
2019-09-28 22:00:00 18 2 Sur 8 Este 0 893.5 0.7 38
2019-09-28 21:00:00 20.8 6 Nordeste 10 Noroeste 0 893.2 0.5 31
2019-09-28 20:00:00 23.2 7 Norte 17 Norte 0 892.9 0 26
2019-09-28 19:00:00 25 12 Norte 21 Noroeste 0 892.8 -0.4 24
2019-09-28 18:00:00 25.9 9 Noroeste 24 Noroeste 0 892.7 -1 23
2019-09-28 17:00:00 26.3 6 Norte 23 Norte 0 892.9 -1.4 26
2019-09-28 16:00:00 26.3 4 Nordeste 13 Sudeste 0 893.2 -1.5 26
2019-09-28 15:00:00 25.8 7 Sudeste 15 Sudeste 0 893.7 -1.1 19
2019-09-28 14:00:00 24.5 6 Sudoeste 10 Oeste 0 894.3 -0.6 21
2019-09-28 13:00:00 22.7 4 Oeste 12 Sudeste 0 894.7 0.2 35
2019-09-28 12:00:00 20.1 6 Sudeste 10 Sudeste 0 894.8 0.8 44
2019-09-28 11:00:00 15.6 4 Sur 6 Sur 0 894.9 1.2 67
2019-09-28 10:00:00 11.9 3 Sudoeste 8 Sur 0 894.5 0.7 75
2019-09-28 09:00:00 8.8 6 Sur 8 Sur 0 894 0.1 86
2019-09-28 08:00:00 8.4 3 Sur 9 Sur 0 893.7 -0.3 86
2019-09-28 07:00:00 8.4 4 Sur 9 Sudoeste 0 893.8 -0.5 83
2019-09-28 06:00:00 8.7 6 Sur 10 Sur 0 893.9 -0.9 77
2019-09-28 05:00:00 9.7 2 Sur 5 Sur 0 894 -1 82
2019-09-28 04:00:00 10.4 2 Sur 5 Sur 0 894.3 -0.7 80
2019-09-28 03:00:00 11.7 2 Sur 5 Norte 0 894.8 -0.2 75
2019-09-28 02:00:00 13.3 3 Norte 8 Norte 0 895 0.3 72
2019-09-28 01:00:00 12.8 4 Norte 7 Nordeste 0 895 0.7 69
2019-09-28 00:00:00 13.4 0 Calma 5 Sur 0 895 1.3 57
2019-09-27 23:00:00 14.8 2 Nordeste 8 Oeste 0 894.7 1.2 48
2019-09-27 22:00:00 17.2 4 Sudoeste 13 Noroeste 0 894.3 0.9 37
2019-09-27 21:00:00 18.9 7 Noroeste 15 Noroeste 0 893.7 0.5 31
2019-09-27 20:00:00 20.9 11 Noroeste 22 Noroeste 0 893.5 0.4 26
2019-09-27 19:00:00 22.6 14 Noroeste 27 Noroeste 0 893.4 0.4 26
2019-09-27 18:00:00 23.3 17 Noroeste 31 Norte 0 893.2 -0.2 26
2019-09-27 17:00:00 23.4 18 Noroeste 31 Noroeste 0 893.1 -0.7 27
2019-09-27 16:00:00 23.5 14 Norte 30 Norte 0 893 -1.1 30
2019-09-27 15:00:00 23.1 12 Norte 24 Noroeste 0 893.4 -1.1 33
2019-09-27 14:00:00 22.6 10 Noroeste 20 Norte 0 893.8 -0.8 31
2019-09-27 13:00:00 21.1 8 Norte 15 Norte 0 894.1 -0.1 37
2019-09-27 12:00:00 19.4 6 Noroeste 10 Oeste 0 894.5 0.5 43
2019-09-27 11:00:00 15.8 3 Sudoeste 8 Sudoeste 0 894.6 1.1 46
2019-09-27 10:00:00 12.3 3 Sur 10 Sur 0 894.2 0.4 57
2019-09-27 09:00:00 9.9 2 Sur 8 Sudeste 0 894 0.2 65
2019-09-27 08:00:00 9.4 2 Sudeste 9 Sudeste 0 893.5 -0.2 69
2019-09-27 07:00:00 9.4 5 Sudeste 8 Sudeste 0 893.8 0 70
2019-09-27 06:00:00 9.9 0 Calma 5 Sudeste 0 893.8 -0.3 70
2019-09-27 05:00:00 10.4 3 Sur 7 Sur 0 893.7 -0.4 69
2019-09-27 04:00:00 10.8 2 Sudeste 4 Sur 0 893.8 -0.5 70
2019-09-27 03:00:00 11.7 3 Sudeste 5 Sudeste 0 894.1 -0.4 67
2019-09-27 02:00:00 12.7 3 Sudeste 4 Sur 0 894.1 -0.2 64
2019-09-27 01:00:00 13.5 0 Calma 6 Sur 0 894.3 0.5 58
2019-09-27 00:00:00 14.7 0 Calma 3 Sudoeste 0 894.5 1.3 51
2019-09-26 23:00:00 17 2 Noroeste 9 Noroeste 0 894.3 1.5 43
2019-09-26 22:00:00 19.2 6 Noroeste 13 Noroeste 0 893.8 1.2 34
2019-09-26 21:00:00 20.4 8 Norte 16 Norte 0 893.2 0.8 36
2019-09-26 20:00:00 22.2 10 Norte 23 Noroeste 0 892.8 0.3 39
2019-09-26 19:00:00 24 15 Noroeste 27 Noroeste 0 892.6 0 33
2019-09-26 18:00:00 24.7 15 Noroeste 29 Noroeste 0 892.4 -0.3 33
2019-09-26 17:00:00 24.7 15 Norte 31 Noroeste 0 892.5 -0.4 35
2019-09-26 16:00:00 25.8 4 Noroeste 13 Sur 0 892.6 -0.7 34
2019-09-26 15:00:00 24.8 8 Sudeste 20 Este 0 892.7 -0.9 35
2019-09-26 14:00:00 23.9 11 Sudeste 21 Sudeste 0 892.9 -0.7 38
2019-09-26 13:00:00 22.8 9 Este 19 Sudeste 0 893.3 -0.1 39
2019-09-26 12:00:00 20.6 6 Sudeste 11 Sudeste 0 893.6 0.6 48
2019-09-26 11:00:00 15.6 4 Sur 9 Sur 0 893.6 0.8 63
2019-09-26 10:00:00 12.4 4 Sur 9 Sudoeste 0 893.4 0.8 72
2019-09-26 09:00:00 9.6 4 Sur 7 Sur 0 893 0.4 82
2019-09-26 08:00:00 9.1 2 Sur 6 Sur 0 892.8 0 84
2019-09-26 07:00:00 9 0 Calma 5 Sur 0 892.6 -0.3 84
2019-09-26 06:00:00 9.5 3 Sur 7 Sur 0 892.6 -0.5 81
2019-09-26 05:00:00 10.1 2 Noroeste 6 Sudeste 0 892.8 -0.3 80
2019-09-26 04:00:00 10.7 2 Nordeste 7 Sudeste 0 892.9 -0.3 77
2019-09-26 03:00:00 11.1 4 Sudeste 11 Sudeste 0 893.1 0 75
2019-09-26 02:00:00 11.3 0 Calma 5 Sur 0 893.1 0.1 75
2019-09-26 01:00:00 12 0 Calma 5 Sur 0 893.2 0.5 71
2019-09-26 00:00:00 13 2 Sudeste 5 Sudoeste 0 893.1 0.8 68
2019-09-25 23:00:00 14.2 0 Calma 4 Sudeste 0 893 0.9 62
2019-09-25 22:00:00 15.6 3 Nordeste 8 Nordeste 0 892.7 0.6 56
2019-09-25 21:00:00 16.4 5 Nordeste 15 Norte 0 892.3 0.6 53
2019-09-25 20:00:00 17.7 9 Norte 26 Noroeste 0 892.1 0.1 49
2019-09-25 19:00:00 18.8 14 Noroeste 24 Noroeste 0 892.1 -0.1 45
2019-09-25 18:00:00 19.8 14 Noroeste 25 Noroeste 0 891.7 -1 42
2019-09-25 17:00:00 19.5 11 Norte 25 Noroeste 0 892 -1 41
2019-09-25 16:00:00 18.7 7 Norte 21 Norte 0 892.2 -1.1 46
2019-09-25 15:00:00 17.7 10 Norte 21 Norte 0 892.7 -0.7 50
2019-09-25 14:00:00 16.2 11 Norte 24 Norte 0 893 -0.1 51
2019-09-25 13:00:00 15.2 13 Noroeste 28 Noroeste 0 893.3 0.7 54
2019-09-25 12:00:00 14.4 13 Noroeste 28 Noroeste 0 893.4 1.2 57
2019-09-25 11:00:00 12.7 13 Noroeste 21 Noroeste 0 893.1 1.3 66
2019-09-25 10:00:00 11.5 13 Noroeste 21 Norte 0 892.6 0.8 75
2019-09-25 09:00:00 10.6 10 Norte 19 Noroeste 0 892.2 0.1 85
2019-09-25 08:00:00 10.6 11 Noroeste 22 Noroeste 0 891.8 0.3 87
2019-09-25 07:00:00 11.1 12 Noroeste 24 Noroeste 0 891.8 -0.3 84
2019-09-25 06:00:00 11.4 16 Noroeste 22 Norte 0 892.1 -0.2 82
2019-09-25 05:00:00 11.3 14 Noroeste 24 Noroeste 0 891.5 -1 83
2019-09-25 04:00:00 12.2 15 Noroeste 24 Noroeste 0 892.1 -0.6 80
2019-09-25 03:00:00 12.7 9 Noroeste 28 Noroeste 0 892.3 -0.4 80
2019-09-25 02:00:00 13.4 18 Noroeste 27 Noroeste 0 892.5 -0.1 78
2019-09-25 01:00:00 13.9 10 Noroeste 23 Noroeste 0 892.7 0.3 79
2019-09-25 00:00:00 14.7 18 Noroeste 27 Norte 0 892.7 0.8 80
2019-09-24 23:00:00 15.4 12 Noroeste 24 Noroeste 0 892.6 0.6 77
2019-09-24 22:00:00 15.9 9 Noroeste 18 Oeste 0 892.4 0.6 83
2019-09-24 21:00:00 16.8 10 Noroeste 21 Noroeste 0 891.9 0.3 80
2019-09-24 20:00:00 18.1 10 Noroeste 25 Norte 0 892 0.4 76
2019-09-24 19:00:00 19.8 18 Noroeste 29 Noroeste 0 891.8 -0.1 71
2019-09-24 18:00:00 21.3 21 Noroeste 31 Noroeste 0 891.6 -0.5 64
2019-09-24 17:00:00 22.8 15 Noroeste 28 Noroeste 0 891.6 -1.1 58
2019-09-24 16:00:00 23.5 15 Oeste 29 Sudoeste 0 891.9 -1.2 55
2019-09-24 15:00:00 23.2 14 Sudoeste 23 Oeste 0 892.1 -1.2 52
2019-09-24 14:00:00 23 11 Oeste 28 Noroeste 0 892.7 -0.6 51
2019-09-24 13:00:00 22.5 15 Oeste 31 Oeste 0 893.1 0.3 49
2019-09-24 12:00:00 22.1 12 Oeste 24 Sudoeste 0 893.3 0.7 42
2019-09-24 11:00:00 19.1 6 Sudoeste 10 Sudoeste 0 893.3 0.9 45
2019-09-24 10:00:00 15.9 4 Sudoeste 9 Sur 0 892.8 0.4 52
2019-09-24 09:00:00 11.6 3 Sudeste 14 Sudeste 0 892.6 0 75
2019-09-24 08:00:00 10.7 3 Sur 15 Sudeste 0 892.4 -0.1 78
2019-09-24 07:00:00 9.9 4 Este 10 Sudeste 0 892.4 -0.4 85
2019-09-24 06:00:00 10.1 5 Sur 8 Sur 0 892.6 -0.7 85
2019-09-24 05:00:00 10.1 0 Calma 6 Sudeste 0 892.5 -1 86
2019-09-24 04:00:00 10.5 3 Sur 5 Sur 0 892.8 -0.9 83
2019-09-24 03:00:00 11.7 3 Sur 8 Sudoeste 0 893.3 -0.7 78
2019-09-24 02:00:00 12.4 4 Sudoeste 7 Sudeste 0 893.5 -0.6 77
2019-09-24 01:00:00 13.2 4 Sur 7 Sur 0 893.7 -0.5 75
2019-09-24 00:00:00 14.1 3 Sudeste 7 Sudeste 0 894 0.1 71
2019-09-23 23:00:00 15.2 3 Este 8 Sudeste 0 894.1 0.5 63
2019-09-23 22:00:00 16.8 4 Sudeste 10 Este 0 894.2 1 51
2019-09-23 21:00:00 18 5 Este 13 Norte 0 893.9 0.9 47
2019-09-23 20:00:00 19.4 10 Norte 17 Nordeste 0 893.6 0.4 41
2019-09-23 19:00:00 21 10 Norte 17 Norte 0 893.2 -0.1 42
2019-09-23 18:00:00 21.8 7 Norte 16 Noroeste 0 893 -0.4 40
2019-09-23 17:00:00 21.8 10 Norte 21 Noroeste 0 893.2 -0.3 40
2019-09-23 16:00:00 21.8 10 Norte 17 Norte 0 893.3 -0.4 36
2019-09-23 15:00:00 22 6 Sudoeste 17 Oeste 0 893.4 -0.5 36
2019-09-23 14:00:00 20.6 6 Sudoeste 12 Sudoeste 0 893.5 -0.3 37
2019-09-23 13:00:00 18.2 5 Sur 12 Sur 0 893.7 0 52
2019-09-23 12:00:00 15.9 6 Sur 9 Sudoeste 0 893.9 0.5 65
2019-09-23 11:00:00 12.8 4 Sur 10 Sudoeste 0 893.8 0.5 74
2019-09-23 10:00:00 10.2 8 Sur 12 Sur 0 893.7 1 79
2019-09-23 09:00:00 9 3 Sur 7 Sudeste 0 893.4 0.9 85
2019-09-23 08:00:00 7.8 0 Calma 4 Sudeste 0 893.3 1.1 88
2019-09-23 07:00:00 7.9 3 Sudeste 4 Sudeste 0 892.7 0.5 88
2019-09-23 06:00:00 8.6 0 Calma 6 Norte 0 892.5 0.4 86
2019-09-23 05:00:00 8.9 3 Este 7 Sudeste 0 892.2 0.1 83
2019-09-23 04:00:00 9.1 2 Sudeste 5 Sudeste 0 892.2 -0.1 83
2019-09-23 03:00:00 9.4 4 Este 6 Sudeste 0 892.1 0.3 81
2019-09-23 02:00:00 10.2 4 Sur 8 Sur 0 892.1 0.3 77
2019-09-23 01:00:00 10.7 3 Oeste 5 Sur 0 892.3 0.8 75
2019-09-23 00:00:00 11.9 3 Sudoeste 7 Sur 0 891.8 1.2 69
2019-09-22 23:00:00 13.5 6 Oeste 14 Norte 0 891.8 1.7 62
2019-09-22 22:00:00 14.1 9 Noroeste 16 Noroeste 0 891.5 1.7 60
2019-09-22 21:00:00 14.8 10 Noroeste 20 Noroeste 0 890.6 0.9 56
2019-09-22 20:00:00 15.8 14 Noroeste 25 Oeste 0 890.1 0.8 53
2019-09-22 19:00:00 16.8 16 Noroeste 26 Noroeste 0 889.8 0.5 51
2019-09-22 18:00:00 17.8 21 Noroeste 31 Noroeste 0 889.7 0.7 49
2019-09-22 17:00:00 18 17 Noroeste 31 Norte 0 889.3 0.1 51
2019-09-22 16:00:00 17.4 18 Noroeste 34 Oeste 0 889.3 0.3 58
2019-09-22 15:00:00 16.9 16 Noroeste 37 Noroeste 0 889 -0.1 60
2019-09-22 14:00:00 15.6 13 Noroeste 28 Norte 0 889.2 0.3 62
2019-09-22 13:00:00 15 6 Oeste 21 Noroeste 0 889 0.5 64
2019-09-22 12:00:00 13.5 9 Noroeste 18 Noroeste 0 889.1 1.3 74
2019-09-22 11:00:00 12.4 7 Norte 14 Norte 0 888.9 1.6 80
2019-09-22 10:00:00 11.2 7 Norte 15 Nordeste 0 888.5 1.6 85
2019-09-22 09:00:00 10.7 6 Nordeste 16 Noroeste 0 887.8 1.5 88
2019-09-22 08:00:00 10.3 8 Norte 21 Noroeste 0.2 887.3 1 92
2019-09-22 07:00:00 10.1 9 Norte 16 Norte 1.2 886.9 0.9 95
2019-09-22 06:00:00 10.6 8 Norte 19 Norte 0 886.3 0.5 91
2019-09-22 05:00:00 10.8 10 Norte 22 Norte 0 886.3 0.9 92
2019-09-22 04:00:00 14.4 7 Oeste 31 Sur 0 886 0.6 80
2019-09-22 03:00:00 15.3 16 Sur 32 Sur 0 885.8 0.1 79
2019-09-22 02:00:00 15 13 Sur 35 Sur 0 885.4 -0.4 85
2019-09-22 01:00:00 14.8 18 Sur 33 Sur 0 885.4 -0.4 87
2019-09-22 00:00:00 15 13 Sudeste 33 Sur 0 885.7 0.6 83
2019-09-21 23:00:00 14.9 14 Sur 36 Sur 0 885.8 -0.1 81
2019-09-21 22:00:00 14.5 12 Sudeste 39 Sur 0 885.8 0.1 84
2019-09-21 21:00:00 14.6 13 Sudeste 33 Sudeste 0 885.1 -0.8 84
2019-09-21 20:00:00 14.3 10 Sudeste 26 Sudeste 0.4 885.9 -0.1 85
2019-09-21 19:00:00 14.4 14 Sudeste 38 Sur 0 885.7 -0.5 85
2019-09-21 18:00:00 15.4 16 Sur 33 Sur 0.2 885.9 -0.5 79
2019-09-21 17:00:00 16.3 15 Sur 39 Sur 0 886 -1 76
2019-09-21 16:00:00 16.5 15 Sur 31 Sur 0 886.2 -1 76
2019-09-21 15:00:00 16.2 12 Sur 30 Sur 0 886.4 -0.9 80
2019-09-21 14:00:00 15.1 12 Sur 26 Sur 0 887 0 84
2019-09-21 13:00:00 15.5 15 Sur 31 Sur 0 887.2 0.5 78
2019-09-21 12:00:00 15.8 16 Sur 35 Sudeste 0.2 887.3 0.6 77
2019-09-21 11:00:00 16.4 14 Sur 31 Sur 0 887 0.1 73
2019-09-21 10:00:00 15.3 10 Sur 26 Sur 0 886.7 -0.1 76
2019-09-21 09:00:00 13.7 11 Sudeste 22 Sudeste 0 886.7 -0.2 79
2019-09-21 08:00:00 12.7 7 Sur 23 Sur 0 886.9 0.1 81
2019-09-21 07:00:00 13.2 10 Sur 18 Sur 0 886.8 -0.4 78
2019-09-21 06:00:00 13.4 7 Sudeste 19 Sur 0 886.9 -0.5 76
2019-09-21 05:00:00 13.7 10 Sudeste 19 Sur 0 886.8 -0.6 77
2019-09-21 04:00:00 13.9 11 Sur 22 Sur 0 887.2 -0.4 78
2019-09-21 03:00:00 14 7 Sur 18 Sur 0 887.4 -0.5 82
2019-09-21 02:00:00 14.6 8 Sudeste 18 Sur 0 887.4 -0.5 81
2019-09-21 01:00:00 15 8 Sudeste 17 Sur 0 887.6 -0.1 83
2019-09-21 00:00:00 15 3 Sur 8 Sudeste 0 887.9 0.1 87
2019-09-20 23:00:00 14.8 2 Sur 14 Sudeste 0 887.9 0 84
2019-09-20 22:00:00 15 4 Sudeste 12 Sudeste 0 887.7 0.6 85
2019-09-20 21:00:00 14.8 6 Sudeste 37 Sudoeste 4.8 887.8 0.4 83
2019-09-20 20:00:00 17.7 15 Sudoeste 36 Sur 0 887.9 0.2 66
2019-09-20 19:00:00 20.6 16 Sudeste 35 Sudeste 0.2 887.1 -1.2 66
2019-09-20 18:00:00 21.8 17 Sudeste 39 Sur 0 887.4 -1.4 53
2019-09-20 17:00:00 22.2 20 Sudeste 41 Sudeste 0 887.7 -1.6 52
2019-09-20 16:00:00 21.5 18 Sudeste 33 Sudeste 0 888.3 -1.4 54
2019-09-20 15:00:00 20.7 16 Sudeste 30 Sudeste 0 888.8 -1.1 59
2019-09-20 14:00:00 19.8 16 Sudeste 33 Sudeste 0 889.3 -0.5 63
2019-09-20 13:00:00 20 17 Sudeste 32 Sudeste 0 889.7 0 63
2019-09-20 12:00:00 19.5 16 Sudeste 33 Sudeste 0 889.9 0.5 63
2019-09-20 11:00:00 16.8 18 Sudeste 30 Sudeste 0 889.8 0.5 74
2019-09-20 10:00:00 16.1 15 Sudeste 31 Sudeste 0 889.7 0.6 79
2019-09-20 09:00:00 15.5 14 Sudeste 29 Sudeste 0 889.4 0.2 82
2019-09-20 08:00:00 15.5 12 Sudeste 29 Sudeste 0 889.3 0.1 82
2019-09-20 07:00:00 15.7 13 Sudeste 26 Sudeste 0 889.1 -0.6 82
2019-09-20 06:00:00 15.8 4 Sudeste 18 Sudeste 0 889.2 -0.9 79
2019-09-20 05:00:00 16 10 Sudeste 19 Sudeste 0 889.2 -1.3 78
2019-09-20 04:00:00 16.3 9 Sudeste 20 Sudeste 0 889.7 -0.8 74
2019-09-20 03:00:00 15.4 8 Sudeste 14 Sudeste 0 890.1 -0.7 77
2019-09-20 02:00:00 14 0 Calma 4 Sudoeste 0 890.5 -0.3 84
2019-09-20 01:00:00 14.4 2 Sudoeste 6 Sudeste 0 890.5 -0.2 81
2019-09-20 00:00:00 14.9 3 Sudeste 9 Sudeste 0 890.8 0.5 78